createdAt,value
2023-03-15T00:01:27.350Z,99144.28
2023-03-15T00:04:37.159Z,99149.81
2023-03-15T00:07:41.913Z,99152.72
2023-03-15T00:10:45.887Z,99161.97
2023-03-15T00:13:48.258Z,99175.28
2023-03-15T00:16:50.577Z,99175.56
2023-03-15T00:19:55.943Z,99175.56
2023-03-15T00:22:58.233Z,99182.38
2023-03-15T00:26:00.577Z,99174.13
2023-03-15T00:29:06.128Z,99187.13
2023-03-15T00:32:08.424Z,99168.78
2023-03-15T00:35:13.112Z,99172.91
2023-03-15T00:38:17.749Z,99174.19
2023-03-15T00:41:24.313Z,99131.50
2023-03-15T00:44:27.694Z,99178.34
2023-03-15T00:47:29.978Z,99164.66
2023-03-15T00:50:34.498Z,99131.59
2023-03-15T00:53:38.072Z,99155.50
2023-03-15T00:56:43.277Z,99159.63
2023-03-15T00:59:53.153Z,99160.66
2023-03-15T01:02:58.201Z,99160.00
2023-03-15T01:06:07.417Z,99141.41
2023-03-15T01:09:12.486Z,99163.09
2023-03-15T01:12:20.219Z,99161.69
2023-03-15T01:15:27.357Z,99144.53
2023-03-15T01:18:29.965Z,99156.00
2023-03-15T01:21:33.027Z,99149.38
2023-03-15T01:24:35.310Z,99141.72
2023-03-15T01:27:37.975Z,99160.03
2023-03-15T01:30:54.953Z,99159.13
2023-03-15T01:34:02.332Z,99164.00
2023-03-15T01:37:07.729Z,99171.06
2023-03-15T01:40:18.461Z,99161.25
2023-03-15T01:43:26.544Z,99160.53
2023-03-15T01:46:34.486Z,99155.34
2023-03-15T01:49:57.982Z,99149.56
2023-03-15T01:53:03.044Z,99154.59
2023-03-15T01:56:11.418Z,99146.69
2023-03-15T01:59:19.877Z,99146.16
2023-03-15T02:02:28.934Z,99151.59
2023-03-15T02:05:39.676Z,99142.69
2023-03-15T02:08:46.856Z,99151.94
2023-03-15T02:11:49.345Z,99134.66
2023-03-15T02:14:56.000Z,99144.00
2023-03-15T02:18:00.750Z,99148.16
2023-03-15T02:21:15.260Z,99160.78
2023-03-15T02:24:32.592Z,99159.81
2023-03-15T02:27:38.129Z,99163.03
2023-03-15T02:30:41.597Z,99153.16
2023-03-15T02:33:49.599Z,99142.09
2023-03-15T02:36:52.633Z,99165.75
2023-03-15T02:39:55.009Z,99157.28
2023-03-15T02:43:11.447Z,99147.72
2023-03-15T02:46:14.813Z,99168.50
2023-03-15T02:49:21.771Z,99162.22
2023-03-15T02:52:26.561Z,99173.44
2023-03-15T02:55:32.684Z,99177.31
2023-03-15T02:58:35.005Z,99185.88
2023-03-15T03:01:37.707Z,99184.91
2023-03-15T03:04:41.611Z,99175.69
2023-03-15T03:07:44.415Z,99171.81
2023-03-15T03:10:47.649Z,99155.47
2023-03-15T03:13:50.001Z,99171.94
2023-03-15T03:16:57.530Z,99171.94
2023-03-15T03:19:59.891Z,99173.84
2023-03-15T03:23:11.441Z,99172.19
2023-03-15T03:26:16.668Z,99180.19
2023-03-15T03:29:20.486Z,99165.97
2023-03-15T03:32:26.627Z,99171.97
2023-03-15T03:35:28.998Z,99167.03
2023-03-15T03:38:33.863Z,99168.50
2023-03-15T03:41:37.887Z,99161.91
2023-03-15T03:44:41.412Z,99176.41
2023-03-15T03:47:43.989Z,99180.53
2023-03-15T03:50:46.328Z,99169.84
2023-03-15T03:53:53.484Z,99162.16
2023-03-15T03:56:55.838Z,99163.56
2023-03-15T04:00:07.277Z,99158.13
2023-03-15T04:03:17.029Z,99163.56
2023-03-15T04:06:26.137Z,99163.06
2023-03-15T04:09:31.160Z,99166.84
2023-03-15T04:12:36.175Z,99161.41
2023-03-15T04:15:41.846Z,99171.06
2023-03-15T04:18:46.229Z,99177.72
2023-03-15T04:21:48.618Z,99191.16
2023-03-15T04:25:13.858Z,99177.81
2023-03-15T04:28:30.350Z,99183.81
2023-03-15T04:31:45.909Z,99192.56
2023-03-15T04:34:59.953Z,99191.75
2023-03-15T04:38:14.583Z,99192.38
2023-03-15T04:41:39.559Z,99204.16
2023-03-15T04:45:02.108Z,99200.03
2023-03-15T04:48:16.738Z,99202.75
2023-03-15T04:51:38.780Z,99211.50
2023-03-15T04:54:56.113Z,99209.34
2023-03-15T04:58:11.543Z,99221.69
2023-03-15T05:01:20.080Z,99229.38
2023-03-15T05:04:35.350Z,99208.34
2023-03-15T05:07:54.166Z,99244.06
2023-03-15T05:11:09.191Z,99213.47
2023-03-15T05:14:36.643Z,99237.59
2023-03-15T05:17:58.265Z,99241.38
2023-03-15T05:21:03.039Z,99226.06
2023-03-15T05:24:15.437Z,99247.41
2023-03-15T05:27:37.273Z,99213.81
2023-03-15T05:31:02.906Z,99237.75
2023-03-15T05:34:28.271Z,99240.00
2023-03-15T05:37:35.885Z,99236.56
2023-03-15T05:41:02.893Z,99228.66
2023-03-15T05:44:16.983Z,99233.97
2023-03-15T05:47:54.556Z,99226.28
2023-03-15T05:51:10.654Z,99229.75
2023-03-15T05:54:38.315Z,99234.44
2023-03-15T05:58:08.883Z,99247.41
2023-03-15T06:01:21.091Z,99248.69
2023-03-15T06:04:41.586Z,99251.41
2023-03-15T06:07:51.390Z,99246.44
2023-03-15T06:10:54.852Z,99273.09
2023-03-15T06:13:57.235Z,99272.97
2023-03-15T06:17:28.687Z,99287.22
2023-03-15T06:20:32.018Z,99262.06
2023-03-15T06:23:42.446Z,99275.75
2023-03-15T06:26:45.516Z,99292.13
2023-03-15T06:29:50.111Z,99298.81
2023-03-15T06:32:55.516Z,99297.50
2023-03-15T06:36:05.121Z,99293.28
2023-03-15T06:39:12.522Z,99275.38
2023-03-15T06:42:17.798Z,99299.19
2023-03-15T06:45:20.580Z,99300.63
2023-03-15T06:48:23.878Z,99302.56
2023-03-15T06:51:26.257Z,99301.53
2023-03-15T06:54:30.796Z,99296.81
2023-03-15T06:57:38.013Z,99293.91
2023-03-15T07:00:41.599Z,99317.03
2023-03-15T07:03:43.864Z,99315.59
2023-03-15T07:06:46.248Z,99322.59
2023-03-15T07:09:49.016Z,99321.88
2023-03-15T07:12:53.752Z,99330.69
2023-03-15T07:15:56.752Z,99330.44
2023-03-15T07:19:02.339Z,99336.72
2023-03-15T07:22:04.834Z,99337.16
2023-03-15T07:25:10.290Z,99346.25
2023-03-15T07:28:15.621Z,99337.16
2023-03-15T07:31:23.036Z,99339.25
2023-03-15T07:34:30.709Z,99352.50
2023-03-15T07:37:35.175Z,99350.47
2023-03-15T07:40:37.409Z,99369.94
2023-03-15T07:43:39.715Z,99355.19
2023-03-15T07:46:48.536Z,99367.47
2023-03-15T07:49:53.608Z,99369.84
2023-03-15T07:52:57.202Z,99341.88
2023-03-15T07:55:59.581Z,99350.63
2023-03-15T07:59:04.029Z,99351.94
2023-03-15T08:02:09.110Z,99358.09
2023-03-15T08:05:11.444Z,99355.63
2023-03-15T08:08:13.775Z,99356.44
2023-03-15T08:11:18.829Z,99370.50
2023-03-15T08:14:24.607Z,99376.06
2023-03-15T08:17:29.541Z,99359.97
2023-03-15T08:20:33.903Z,99367.56
2023-03-15T08:23:36.266Z,99389.66
2023-03-15T08:26:38.534Z,99379.00
2023-03-15T08:29:43.543Z,99379.31
2023-03-15T08:32:47.563Z,99387.22
2023-03-15T08:35:56.495Z,99403.84
2023-03-15T08:39:02.512Z,99403.47
2023-03-15T08:42:05.362Z,99407.41
2023-03-15T08:45:09.137Z,99413.66
2023-03-15T08:48:14.452Z,99421.78
2023-03-15T08:51:16.762Z,99420.16
2023-03-15T08:54:19.358Z,99406.91
2023-03-15T08:57:26.017Z,99436.84
2023-03-15T09:00:30.474Z,99433.09
2023-03-15T09:03:35.360Z,99446.28
2023-03-15T09:06:38.665Z,99459.78
2023-03-15T09:09:48.079Z,99465.34
2023-03-15T09:12:54.621Z,99479.84
2023-03-15T09:15:59.677Z,99487.31
2023-03-15T09:19:07.269Z,99485.59
2023-03-15T09:22:16.913Z,99500.59
2023-03-15T09:25:27.531Z,99491.53
2023-03-15T09:28:32.058Z,99501.94
2023-03-15T09:31:34.477Z,99507.81
2023-03-15T09:34:41.835Z,99511.44
2023-03-15T09:37:48.092Z,99511.13
2023-03-15T09:40:50.924Z,99532.81
2023-03-15T09:44:06.734Z,99539.78
2023-03-15T09:47:14.969Z,99534.63
2023-03-15T09:50:26.340Z,99550.38
2023-03-15T09:53:41.441Z,99545.47
2023-03-15T09:57:04.930Z,99556.94
2023-03-15T10:00:14.677Z,99542.94
2023-03-15T10:03:35.984Z,99547.06
2023-03-15T10:06:47.424Z,99541.09
2023-03-15T10:09:49.620Z,99548.41
2023-03-15T10:13:32.763Z,99543.59
2023-03-15T10:16:46.445Z,99551.81
2023-03-15T10:20:01.322Z,99558.59
2023-03-15T10:23:03.507Z,99543.16
2023-03-15T10:26:14.214Z,99562.19
2023-03-15T10:29:20.058Z,99574.72
2023-03-15T10:32:30.211Z,99555.88
2023-03-15T10:35:33.055Z,99571.84
2023-03-15T10:38:42.805Z,99581.31
2023-03-15T10:41:50.253Z,99564.16
2023-03-15T10:44:52.632Z,99588.41
2023-03-15T10:48:00.430Z,99580.97
2023-03-15T10:51:18.835Z,99578.69
2023-03-15T10:54:25.454Z,99574.22
2023-03-15T10:57:34.276Z,99582.19
2023-03-15T11:00:38.932Z,99582.91
2023-03-15T11:03:44.688Z,99579.84
2023-03-15T11:07:00.828Z,99600.84
2023-03-15T11:10:06.384Z,99599.13
2023-03-15T11:13:24.784Z,99597.22
2023-03-15T11:16:36.685Z,99597.38
2023-03-15T11:19:45.616Z,99603.88
2023-03-15T11:22:52.165Z,99602.03
2023-03-15T11:25:57.201Z,99599.34
2023-03-15T11:29:04.335Z,99608.56
2023-03-15T11:32:18.905Z,99617.91
2023-03-15T11:35:39.579Z,99603.81
2023-03-15T11:38:47.722Z,99617.69
2023-03-15T11:41:57.417Z,99607.19
2023-03-15T11:45:09.422Z,99602.59
2023-03-15T11:48:19.796Z,99609.22
2023-03-15T11:51:22.270Z,99615.22
2023-03-15T11:54:28.820Z,99619.25
2023-03-15T11:57:43.207Z,99617.00
2023-03-15T12:00:53.805Z,99623.75
2023-03-15T12:04:33.107Z,99621.63
2023-03-15T12:07:38.146Z,99619.72
2023-03-15T12:10:46.843Z,99635.13
2023-03-15T12:13:58.331Z,99636.66
2023-03-15T12:17:28.570Z,99628.94
2023-03-15T12:20:37.416Z,99639.97
2023-03-15T12:23:39.679Z,99633.81
2023-03-15T12:26:46.589Z,99623.75
2023-03-15T12:30:01.641Z,99632.16
2023-03-15T12:33:15.629Z,99639.72
2023-03-15T12:36:35.409Z,99629.06
2023-03-15T12:39:39.711Z,99632.84
2023-03-15T12:42:41.956Z,99642.06
2023-03-15T12:45:45.667Z,99647.50
2023-03-15T12:49:11.567Z,99642.06
2023-03-15T12:52:16.762Z,99646.81
2023-03-15T12:55:19.230Z,99622.22
2023-03-15T12:58:27.639Z,99652.00
2023-03-15T13:01:34.979Z,99629.41
2023-03-15T13:04:37.312Z,99652.03
2023-03-15T13:08:01.375Z,99659.38
2023-03-15T13:11:25.774Z,99667.84
2023-03-15T13:14:44.364Z,99670.56
2023-03-15T13:17:58.811Z,99673.66
2023-03-15T13:21:19.373Z,99662.19
2023-03-15T13:24:47.664Z,99676.03
2023-03-15T13:27:58.949Z,99682.78
2023-03-15T13:31:10.217Z,99674.25
2023-03-15T13:34:24.745Z,99680.66
2023-03-15T13:37:29.472Z,99681.47
2023-03-15T13:40:31.735Z,99693.41
2023-03-15T13:43:37.216Z,99703.44
2023-03-15T13:46:40.438Z,99700.41
2023-03-15T13:49:45.879Z,99712.81
2023-03-15T13:52:50.839Z,99715.53
2023-03-15T13:55:57.260Z,99708.44
2023-03-15T13:59:04.638Z,99716.38
2023-03-15T14:02:26.862Z,99722.53
2023-03-15T14:05:32.978Z,99710.00
2023-03-15T14:08:39.188Z,99738.25
2023-03-15T14:11:41.607Z,99729.81
2023-03-15T14:14:53.025Z,99737.41
2023-03-15T14:18:38.765Z,99733.81
2023-03-15T14:21:44.583Z,99757.84
2023-03-15T14:24:54.449Z,99767.16
2023-03-15T14:28:01.657Z,99767.50
2023-03-15T14:31:06.295Z,99760.09
2023-03-15T14:34:23.791Z,99767.22
2023-03-15T14:37:35.130Z,99769.50
2023-03-15T14:40:39.239Z,99752.56
2023-03-15T14:43:41.561Z,99774.50
2023-03-15T14:46:46.073Z,99772.44
2023-03-15T14:49:48.428Z,99776.81
2023-03-15T14:52:51.362Z,99772.22
2023-03-15T14:55:53.735Z,99779.47
2023-03-15T14:58:58.284Z,99793.56
2023-03-15T15:02:02.869Z,99790.28
2023-03-15T15:05:19.955Z,99797.16
2023-03-15T15:08:24.976Z,99816.38
2023-03-15T15:11:33.236Z,99803.31
2023-03-15T15:14:35.592Z,99830.63
2023-03-15T15:17:37.759Z,99828.97
2023-03-15T15:20:41.937Z,99833.59
2023-03-15T15:23:58.041Z,99840.63
2023-03-15T15:27:07.567Z,99845.06
2023-03-15T15:30:16.327Z,99856.53
2023-03-15T15:33:18.907Z,99853.34
2023-03-15T15:36:32.387Z,99864.00
2023-03-15T15:39:34.892Z,99853.72
2023-03-15T15:42:39.534Z,99860.88
2023-03-15T15:45:41.971Z,99853.91
2023-03-15T15:48:47.065Z,99874.69
2023-03-15T15:51:49.950Z,99881.34
2023-03-15T15:54:52.706Z,99883.88
2023-03-15T15:57:55.143Z,99894.00
2023-03-15T16:01:01.178Z,99888.81
2023-03-15T16:04:03.792Z,99886.53
2023-03-15T16:07:07.079Z,99907.00
2023-03-15T16:10:20.320Z,99913.25
2023-03-15T16:13:25.066Z,99922.47
2023-03-15T16:16:27.578Z,99916.25
2023-03-15T16:19:30.036Z,99913.16
2023-03-15T16:22:37.081Z,99923.88
2023-03-15T16:25:41.743Z,99937.63
2023-03-15T16:28:44.179Z,99929.38
2023-03-15T16:31:47.314Z,99934.81
2023-03-15T16:34:58.660Z,99943.34
2023-03-15T16:38:01.931Z,99950.22
2023-03-15T16:41:06.544Z,99952.91
2023-03-15T16:44:14.277Z,99955.81
2023-03-15T16:47:19.441Z,99967.38
2023-03-15T16:50:26.441Z,99959.88
2023-03-15T16:53:37.297Z,99966.13
2023-03-15T16:56:40.841Z,99956.56
2023-03-15T16:59:43.101Z,99993.75
2023-03-15T17:02:47.345Z,99992.09
2023-03-15T17:05:52.485Z,99995.03
2023-03-15T17:09:10.500Z,100000.28
2023-03-15T17:12:21.186Z,100003.63
2023-03-15T17:15:25.859Z,100008.03
2023-03-15T17:18:30.034Z,100007.22
2023-03-15T17:21:35.863Z,99999.72
2023-03-15T17:24:40.610Z,99983.50
2023-03-15T17:27:44.923Z,100029.81
2023-03-15T17:30:48.501Z,100021.47
2023-03-15T17:33:54.264Z,100033.16
2023-03-15T17:36:58.825Z,100027.75
2023-03-15T17:40:10.786Z,100055.69
2023-03-15T17:43:14.678Z,100062.59
2023-03-15T17:46:29.914Z,100066.34
2023-03-15T17:49:32.330Z,100059.88
2023-03-15T17:52:37.145Z,100087.41
2023-03-15T17:55:42.023Z,100075.72
2023-03-15T17:58:47.060Z,100094.69
2023-03-15T18:01:49.567Z,100078.25
2023-03-15T18:04:51.825Z,100101.19
2023-03-15T18:08:01.629Z,100112.41
2023-03-15T18:11:17.193Z,100107.44
2023-03-15T18:14:19.530Z,100114.06
2023-03-15T18:17:26.254Z,100119.94
2023-03-15T18:20:31.243Z,100115.34
2023-03-15T18:23:33.615Z,100114.06
2023-03-15T18:26:40.660Z,100120.75
2023-03-15T18:29:45.381Z,100141.16
2023-03-15T18:32:47.854Z,100137.03
2023-03-15T18:35:50.156Z,100137.19
2023-03-15T18:38:52.633Z,100133.25
2023-03-15T18:41:57.217Z,100152.22
2023-03-15T18:44:59.426Z,100150.34
2023-03-15T18:48:04.526Z,100141.56
2023-03-15T18:51:12.182Z,100158.88
2023-03-15T18:54:17.905Z,100158.44
2023-03-15T18:57:22.544Z,100150.75
2023-03-15T19:00:29.558Z,100153.25
2023-03-15T19:03:31.983Z,100155.31
2023-03-15T19:06:35.581Z,100169.88
2023-03-15T19:09:37.837Z,100170.28
2023-03-15T19:12:48.171Z,100171.94
2023-03-15T19:15:50.721Z,100174.66
2023-03-15T19:18:55.513Z,100175.50
2023-03-15T19:21:57.876Z,100189.47
2023-03-15T19:25:03.887Z,100182.34
2023-03-15T19:28:11.987Z,100184.84
2023-03-15T19:31:14.337Z,100195.50
2023-03-15T19:34:18.914Z,100193.97
2023-03-15T19:37:24.322Z,100209.41
2023-03-15T19:40:28.782Z,100214.00
2023-03-15T19:43:33.256Z,100212.53
2023-03-15T19:46:38.972Z,100217.75
2023-03-15T19:49:43.664Z,100215.00
2023-03-15T19:52:46.224Z,100218.13
2023-03-15T19:55:48.781Z,100233.28
2023-03-15T19:58:57.088Z,100222.28
2023-03-15T20:01:59.407Z,100240.59
2023-03-15T20:05:04.143Z,100237.47
2023-03-15T20:08:08.460Z,100221.97
2023-03-15T20:11:14.939Z,100234.28
2023-03-15T20:14:18.785Z,100240.91
2023-03-15T20:17:21.100Z,100248.28
2023-03-15T20:20:23.915Z,100253.25
2023-03-15T20:23:26.475Z,100253.59
2023-03-15T20:26:31.416Z,100265.06
2023-03-15T20:29:35.949Z,100273.19
2023-03-15T20:32:38.659Z,100269.63
2023-03-15T20:35:43.339Z,100275.22
2023-03-15T20:38:46.349Z,100280.47
2023-03-15T20:41:48.905Z,100272.47
2023-03-15T20:44:51.402Z,100274.59
2023-03-15T20:47:56.806Z,100269.56
2023-03-15T20:51:04.591Z,100267.28
2023-03-15T20:54:09.164Z,100262.25
2023-03-15T20:57:16.340Z,100272.28
2023-03-15T21:00:20.064Z,100273.50
2023-03-15T21:03:22.772Z,100293.97
2023-03-15T21:06:27.789Z,100291.22
2023-03-15T21:09:36.202Z,100288.75
2023-03-15T21:12:38.507Z,100292.09
2023-03-15T21:15:46.464Z,100281.22
2023-03-15T21:18:54.941Z,100293.34
2023-03-15T21:21:59.023Z,100302.53
2023-03-15T21:25:02.844Z,100287.72
2023-03-15T21:28:05.288Z,100292.69
2023-03-15T21:31:08.191Z,100292.97
2023-03-15T21:34:13.241Z,100290.69
2023-03-15T21:37:15.625Z,100281.03
2023-03-15T21:40:18.071Z,100294.56
2023-03-15T21:43:20.690Z,100292.06
2023-03-15T21:46:23.870Z,100294.13
2023-03-15T21:49:27.334Z,100291.63
2023-03-15T21:52:32.579Z,100300.78
2023-03-15T21:55:35.000Z,100295.78
2023-03-15T21:58:40.014Z,100292.03
2023-03-15T22:01:42.304Z,100288.47
2023-03-15T22:04:44.833Z,100293.63
2023-03-15T22:07:49.633Z,100290.78
2023-03-15T22:10:56.265Z,100289.06
2023-03-15T22:14:00.975Z,100294.72
2023-03-15T22:17:04.764Z,100293.28
2023-03-15T22:20:16.994Z,100299.31
2023-03-15T22:23:22.517Z,100281.09
2023-03-15T22:26:25.031Z,100303.50
2023-03-15T22:29:27.831Z,100306.31
2023-03-15T22:32:33.120Z,100315.72
2023-03-15T22:35:37.952Z,100304.84
2023-03-15T22:38:42.749Z,100298.59
2023-03-15T22:41:47.290Z,100304.25
2023-03-15T22:44:51.855Z,100306.50
2023-03-15T22:47:54.443Z,100300.88
2023-03-15T22:51:03.686Z,100316.06
2023-03-15T22:54:09.496Z,100313.22
2023-03-15T22:57:14.133Z,100317.34
2023-03-15T23:00:22.016Z,100317.94
2023-03-15T23:03:24.562Z,100321.25
2023-03-15T23:06:29.353Z,100316.50
2023-03-15T23:09:36.914Z,100315.25
2023-03-15T23:12:43.031Z,100322.25
2023-03-15T23:15:47.646Z,100317.84
2023-03-15T23:18:50.034Z,100327.59
2023-03-15T23:21:54.605Z,100337.84
2023-03-15T23:24:58.241Z,100325.84
2023-03-15T23:28:00.567Z,100343.19
2023-03-15T23:31:05.221Z,100339.19
2023-03-15T23:34:08.776Z,100344.88
2023-03-15T23:37:15.252Z,100343.28
2023-03-15T23:40:17.836Z,100349.50
2023-03-15T23:43:28.299Z,100336.09
2023-03-15T23:46:36.204Z,100353.66
2023-03-15T23:49:38.531Z,100347.63
2023-03-15T23:52:42.991Z,100356.03
2023-03-15T23:55:45.471Z,100359.53
2023-03-15T23:58:52.800Z,100370.63
